Flight Track Log - Related Links

Times and Time Zones

All times are in EDT time to prevent confusion due to time zone crossing. See the WAE5 flight status page for this flight to view local times or setup timezone preferences in your user account.

Time Position Orientation Groundspeed Altitude Reporting Facility
EDT Latitude Longitude Course Direction KTS MPH feet Rate Location/Type
Tue 08:58:30 AM 40.7636 -111.9686 240° Southwest 113 130 4,800  Level Salt Lake Center
Tue 08:58:49 AM 40.7592 -111.9786 240° Southwest 124 143 5,000 706 Climbing Salt Lake Center
Tue 08:59:55 AM 40.7831 -112.0242 305° West 138 159 5,800 723 Climbing Salt Lake Center
Tue 09:01:10 AM 40.8175 -112.0619 320° Northwest 140 161 6,700 836 Climbing Salt Lake Center
Tue 09:01:57 AM 40.8492 -112.0756 342° North 136 157 7,500 850 Climbing Salt Lake Center
Tue 09:03:03 AM 40.8886 -112.0906 344° North 138 159 8,300 734 Climbing Salt Lake Center
Tue 09:04:16 AM 40.9358 -112.1114 342° North 143 165 9,200 716 Climbing Salt Lake Center
Tue 09:05:17 AM 40.9728 -112.1244 345° North 143 165 9,900 440 Climbing Salt Lake Center
Tue 09:06:05 AM 41.0047 -112.1333 348° North 150 173 10,000 51 Climbing Salt Lake Center
Tue 09:07:15 AM 41.0558 -112.1525 344° North 174 200 10,000  Level Salt Lake Center
Tue 09:08:07 AM 41.1069 -112.1614 353° North 181 208 10,000  Level Salt Lake Center
Tue 09:09:14 AM 41.1608 -112.1631 359° North 181 208 10,000  Level Salt Lake Center
Tue 09:10:15 AM 41.2100 -112.1719 352° North 181 208 10,000  Level Salt Lake Center
Tue 09:11:16 AM 41.2622 -112.1742 358° North 183 211 10,000  Level Salt Lake Center
Tue 09:12:16 AM 41.3158 -112.1731 North 181 208 10,000  Level Salt Lake Center
Tue 09:13:11 AM 41.3581 -112.1700 North 180 207 10,000 240 Level Salt Lake Center
Tue 09:14:21 AM 41.4125 -112.1922 343° North 168 193 10,500 183 Climbing Salt Lake Center
Tue 09:15:22 AM 41.4586 -112.2039 349° North 169 194 10,400  Descending Salt Lake Center
Tue 09:16:23 AM 41.5078 -112.2181 348° North 178 205 10,500  Climbing Salt Lake Center
Tue 09:17:24 AM 41.5569 -112.2297 350° North 180 207 10,400 -49 Descending Salt Lake Center
Tue 09:18:25 AM 41.6067 -112.2431 349° North 181 208 10,400 49 Level Salt Lake Center
Tue 09:19:26 AM 41.6558 -112.2556 349° North 179 206 10,500 49 Climbing Salt Lake Center
Tue 09:20:27 AM 41.7033 -112.2664 350° North 176 203 10,500  Level Salt Lake Center
Tue 09:21:28 AM 41.7536 -112.2808 348° North 181 208 10,500 -49 Level Salt Lake Center
Tue 09:22:29 AM 41.8025 -112.2919 350° North 179 206 10,400 -49 Descending Salt Lake Center
Tue 09:23:30 AM 41.8519 -112.3050 349° North 179 206 10,400  Level Salt Lake Center
Tue 09:24:31 AM 41.9022 -112.3186 349° North 181 208 10,400  Level Salt Lake Center
Tue 09:25:32 AM 41.9517 -112.3297 351° North 181 208 10,400  Level Salt Lake Center
Tue 09:26:33 AM 42.0119 -112.3447 350° North 182 209 10,400 49 Level Salt Lake Center
Tue 09:27:34 AM 42.0617 -112.3603 347° North 183 211 10,500 49 Climbing Salt Lake Center
Tue 09:28:35 AM 42.1106 -112.3767 346° North 183 211 10,500  Level Salt Lake Center
Tue 09:29:36 AM 42.1583 -112.3925 346° North 180 207 10,500 -49 Level Salt Lake Center
Tue 09:30:37 AM 42.2086 -112.4103 345° North 182 209 10,400 -49 Descending Salt Lake Center
Tue 09:31:39 AM 42.2578 -112.4264 346° North 183 211 10,400  Level Salt Lake Center
Tue 09:32:40 AM 42.3067 -112.4428 346° North 182 209 10,400  Level Salt Lake Center
Tue 09:33:41 AM 42.3553 -112.4589 346° North 181 208 10,400  Level Salt Lake Center
Tue 09:34:42 AM 42.4064 -112.4725 349° North 185 213 10,400  Level Salt Lake Center
Tue 09:35:43 AM 42.4558 -112.4892 346° North 183 211 10,400  Level Salt Lake Center
Tue 09:36:44 AM 42.5042 -112.5058 346° North 182 209 10,400 -246 Level Salt Lake Center
Tue 09:37:45 AM 42.5653 -112.5267 346° North 186 214 9,900 -439 Descending Salt Lake Center
Tue 09:38:47 AM 42.6106 -112.5442 344° North 190 219 9,500 -387 Descending Salt Lake Center

Login

Don't have an account? Register now (free) for customized features, flight alerts, and more!